Terminal Aerodrome Forecast
Issued by NWS Cleveland, OH

Home | Current Version | Previous Version | Text Only | Print | Product List | Glossary Off
Versions: 1 2 3 4 5 6 7 8 9 10 11 12 13 14 15 16 17 18

895
FTUS41 KCLE 260731 AAA
TAFTOL
TAF AMD
KTOL 260731Z 2608/2706 23011KT P6SM BKN060 OVC090
     FM261000 25010KT P6SM SCT015 BKN080
     FM261400 31011KT P6SM OVC010
     FM261900 02012KT P6SM OVC020=

USA.gov is the U.S. government's official web portal to all federal, state and local government web resources and services.